Time;durP1;ratioP1;P1;durP2;ratioP2;P2;SDS_P1;SDS_P2;PMS_P1;PMS_P2;Temp;Humidity;BMP_temperature;BMP_pressure;BME280_temperature;BME280_humidity;BME280_pressure;Samples;Min_cycle;Max_cycle;Signal;HPM_P1;HPM_P2
2021/07/30 00:02:22;;;;;;;;;12.00;10.25;;;;;;;;5040201;28;46815;-81
2021/07/30 00:04:47;;;;;;;;;10.00;10.00;;;;;;;;5038628;28;48141;-80
2021/07/30 00:07:13;;;;;;;;;11.00;9.75;;;;;;;;5038529;28;47274;-81
2021/07/30 00:09:39;;;;;;;;;11.25;10.00;;;;;;;;5038230;28;49334;-82
2021/07/30 00:12:05;;;;;;;;;7.25;7.25;;;;;;;;5050403;28;47172;-82
2021/07/30 00:14:30;;;;;;;;;7.50;7.50;;;;;;;;5066693;28;46988;-81
2021/07/30 00:16:56;;;;;;;;;10.00;9.75;;;;;;;;5060278;28;47062;-81
2021/07/30 00:19:24;;;;;;;;;8.25;8.00;;;;;;;;5052856;28;48149;-82
2021/07/30 00:21:49;;;;;;;;;10.50;9.50;;;;;;;;5072219;28;46731;-82
2021/07/30 00:24:15;;;;;;;;;10.00;10.00;;;;;;;;5074695;28;46987;-81
2021/07/30 00:26:40;;;;;;;;;12.75;10.50;;;;;;;;5041767;28;47137;-81
2021/07/30 00:29:06;;;;;;;;;9.25;9.25;;;;;;;;5059565;28;46934;-81
2021/07/30 00:31:31;;;;;;;;;11.25;8.00;;;;;;;;5059692;28;48097;-81
2021/07/30 00:33:57;;;;;;;;;8.50;8.50;;;;;;;;5071619;28;46856;-81
2021/07/30 00:36:22;;;;;;;;;9.50;9.00;;;;;;;;5061414;28;47023;-81
2021/07/30 00:38:48;;;;;;;;;9.75;8.50;;;;;;;;5064594;28;47973;-81
2021/07/30 00:41:14;;;;;;;;;10.75;9.75;;;;;;;;5065248;28;47117;-81
2021/07/30 00:43:39;;;;;;;;;7.25;7.25;;;;;;;;5059746;28;47122;-81
2021/07/30 00:46:05;;;;;;;;;7.50;7.00;;;;;;;;5059655;28;47011;-82
2021/07/30 00:48:30;;;;;;;;;4.50;3.25;;;;;;;;5059473;28;46915;-81
2021/07/30 00:50:56;;;;;;;;;10.25;9.50;;;;;;;;5059371;28;46850;-81
2021/07/30 00:53:23;;;;;;;;;6.50;6.50;;;;;;;;5059415;28;47047;-81
2021/07/30 00:55:49;;;;;;;;;8.00;8.00;;;;;;;;5059066;28;47005;-81
2021/07/30 00:58:14;;;;;;;;;11.00;9.25;;;;;;;;5066901;28;47091;-81
2021/07/30 01:00:40;;;;;;;;;10.75;9.25;;;;;;;;5073075;28;46762;-81
2021/07/30 01:03:06;;;;;;;;;8.75;8.75;;;;;;;;5059234;28;46999;-81
2021/07/30 01:05:32;;;;;;;;;7.00;7.00;;;;;;;;5059016;28;47021;-81
2021/07/30 01:07:58;;;;;;;;;10.00;8.75;;;;;;;;5058808;28;47896;-81
2021/07/30 01:10:23;;;;;;;;;9.25;9.25;;;;;;;;5057353;28;47047;-81
2021/07/30 01:12:49;;;;;;;;;8.00;8.00;;;;;;;;5058589;28;46967;-82
2021/07/30 01:15:14;;;;;;;;;11.00;10.00;;;;;;;;5063347;28;47037;-82
2021/07/30 01:17:40;;;;;;;;;7.75;6.00;;;;;;;;5067645;28;47057;-82
2021/07/30 01:20:06;;;;;;;;;10.25;8.75;;;;;;;;5054027;28;47344;-81
2021/07/30 01:22:35;;;;;;;;;9.50;7.25;;;;;;;;5077183;28;47052;-81
2021/07/30 01:25:00;;;;;;;;;9.50;7.75;;;;;;;;5060062;28;46962;-81
2021/07/30 01:27:26;;;;;;;;;7.25;6.00;;;;;;;;5040284;28;49262;-81
2021/07/30 01:29:51;;;;;;;;;10.50;10.00;;;;;;;;5071978;28;46744;-81
2021/07/30 01:32:17;;;;;;;;;11.50;11.50;;;;;;;;5070992;28;46992;-81
2021/07/30 01:34:43;;;;;;;;;10.50;8.75;;;;;;;;5057691;28;46830;-81
2021/07/30 01:37:09;;;;;;;;;8.50;8.50;;;;;;;;5065881;28;48015;-81
2021/07/30 01:39:35;;;;;;;;;8.50;8.25;;;;;;;;5077722;28;47110;-81
2021/07/30 01:42:00;;;;;;;;;7.50;6.75;;;;;;;;5047925;28;46956;-81
2021/07/30 01:44:26;;;;;;;;;9.25;8.25;;;;;;;;5058323;28;47214;-81
2021/07/30 01:46:51;;;;;;;;;11.00;9.25;;;;;;;;5040166;28;49258;-81
2021/07/30 01:49:17;;;;;;;;;10.25;9.75;;;;;;;;5058378;28;47028;-81
2021/07/30 01:51:42;;;;;;;;;9.25;8.25;;;;;;;;5058499;28;47004;-81
2021/07/30 01:54:08;;;;;;;;;12.50;8.00;;;;;;;;5058038;28;47229;-81
2021/07/30 01:56:34;;;;;;;;;10.00;9.00;;;;;;;;5058363;28;46867;-82
2021/07/30 01:58:59;;;;;;;;;10.50;8.75;;;;;;;;5063660;28;46874;-81
2021/07/30 02:01:24;;;;;;;;;12.25;10.75;;;;;;;;5072354;28;46844;-82
2021/07/30 02:03:50;;;;;;;;;9.75;8.50;;;;;;;;5073176;27;47327;-82
2021/07/30 02:06:15;;;;;;;;;10.75;8.75;;;;;;;;5058134;28;47794;-82
2021/07/30 02:08:43;;;;;;;;;10.00;9.50;;;;;;;;5076504;28;47231;-82
2021/07/30 02:11:12;;;;;;;;;10.50;9.00;;;;;;;;5047458;28;46779;-82
2021/07/30 02:16:21;;;;;;;;;9.00;7.75;;;;;;;;5071349;28;47017;-82
2021/07/30 02:18:47;;;;;;;;;11.00;9.00;;;;;;;;5066845;28;46861;-82
2021/07/30 02:21:12;;;;;;;;;9.25;9.25;;;;;;;;5057503;28;46912;-82
2021/07/30 02:23:37;;;;;;;;;9.75;9.25;;;;;;;;5069149;28;46990;-82
2021/07/30 02:26:02;;;;;;;;;10.00;9.00;;;;;;;;5057591;28;46943;-81
2021/07/30 02:28:28;;;;;;;;;9.50;8.50;;;;;;;;5039443;28;47397;-81
2021/07/30 02:30:53;;;;;;;;;10.75;9.25;;;;;;;;5069964;28;47025;-81
2021/07/30 02:33:18;;;;;;;;;8.25;8.25;;;;;;;;5074026;28;46940;-81
2021/07/30 02:35:45;;;;;;;;;7.25;7.25;;;;;;;;5067277;28;48188;-82
2021/07/30 02:38:10;;;;;;;;;10.75;10.75;;;;;;;;5057767;28;46909;-81
2021/07/30 02:40:36;;;;;;;;;9.00;8.00;;;;;;;;5068121;28;49393;-81
2021/07/30 02:43:01;;;;;;;;;9.25;9.25;;;;;;;;5057484;28;46792;-82
2021/07/30 02:45:26;;;;;;;;;8.00;8.00;;;;;;;;5057211;28;46935;-81
2021/07/30 02:47:52;;;;;;;;;11.00;9.75;;;;;;;;5057445;28;46926;-81
2021/07/30 02:50:17;;;;;;;;;9.00;9.00;;;;;;;;5057435;28;46989;-81
2021/07/30 02:52:42;;;;;;;;;12.75;9.00;;;;;;;;5050952;28;46884;-81
2021/07/30 02:55:08;;;;;;;;;10.00;9.00;;;;;;;;5058526;28;47781;-81
2021/07/30 02:57:33;;;;;;;;;12.25;10.25;;;;;;;;5056989;28;46909;-81
2021/07/30 02:59:59;;;;;;;;;9.75;8.50;;;;;;;;5052269;28;47162;-81
2021/07/30 03:02:24;;;;;;;;;8.75;8.50;;;;;;;;5068665;28;46875;-82
2021/07/30 03:04:49;;;;;;;;;9.75;9.75;;;;;;;;5057157;28;46887;-82
2021/07/30 03:07:15;;;;;;;;;11.00;10.50;;;;;;;;5056954;28;46904;-82
2021/07/30 03:09:40;;;;;;;;;8.00;7.50;;;;;;;;5038690;28;47044;-81
2021/07/30 03:12:06;;;;;;;;;9.00;9.00;;;;;;;;5038448;28;47273;-81
2021/07/30 03:14:31;;;;;;;;;7.75;7.00;;;;;;;;5064569;28;47042;-81
2021/07/30 03:16:56;;;;;;;;;11.25;10.00;;;;;;;;5044494;28;47084;-81
2021/07/30 03:19:22;;;;;;;;;11.75;9.75;;;;;;;;5064380;28;47062;-81
2021/07/30 03:21:47;;;;;;;;;10.00;9.00;;;;;;;;5056834;28;47055;-81
2021/07/30 03:24:12;;;;;;;;;10.00;8.25;;;;;;;;5069662;28;47061;-81
2021/07/30 03:26:38;;;;;;;;;11.25;10.50;;;;;;;;5056739;28;46937;-81
2021/07/30 03:29:04;;;;;;;;;8.50;8.50;;;;;;;;5056900;28;46908;-81
2021/07/30 03:31:29;;;;;;;;;10.00;8.25;;;;;;;;5038799;28;47905;-81
2021/07/30 03:33:55;;;;;;;;;11.25;11.25;;;;;;;;5067325;28;47944;-81
2021/07/30 03:36:20;;;;;;;;;9.75;8.25;;;;;;;;5077806;28;46975;-81
2021/07/30 03:38:45;;;;;;;;;8.50;8.50;;;;;;;;5060296;28;46917;-80
2021/07/30 03:41:10;;;;;;;;;11.00;9.00;;;;;;;;5061094;28;47192;-81
2021/07/30 03:43:36;;;;;;;;;9.75;8.50;;;;;;;;5054769;28;48100;-81
2021/07/30 03:46:01;;;;;;;;;10.25;9.50;;;;;;;;5060142;28;46987;-81
2021/07/30 03:48:27;;;;;;;;;10.00;10.00;;;;;;;;5067774;28;46809;-81
2021/07/30 03:50:52;;;;;;;;;5.75;2.75;;;;;;;;5066519;28;47116;-81
2021/07/30 03:53:17;;;;;;;;;8.50;7.00;;;;;;;;5060070;28;47128;-81
2021/07/30 03:55:43;;;;;;;;;7.50;7.00;;;;;;;;5060446;28;46843;-81
2021/07/30 03:58:08;;;;;;;;;10.25;8.00;;;;;;;;5068483;27;47066;-81
2021/07/30 04:00:33;;;;;;;;;7.75;7.75;;;;;;;;5073711;28;46825;-81
2021/07/30 04:02:59;;;;;;;;;7.75;7.25;;;;;;;;5066913;28;47084;-81
2021/07/30 04:05:24;;;;;;;;;9.00;8.25;;;;;;;;5059557;28;46884;-81
2021/07/30 04:07:49;;;;;;;;;9.00;8.75;;;;;;;;5059990;28;47038;-81
2021/07/30 04:10:15;;;;;;;;;8.00;8.00;;;;;;;;5041348;28;47129;-81
2021/07/30 04:12:40;;;;;;;;;9.00;9.00;;;;;;;;5059437;28;47811;-81
2021/07/30 04:15:06;;;;;;;;;8.50;8.50;;;;;;;;5064874;28;47044;-81
2021/07/30 04:17:31;;;;;;;;;8.50;8.25;;;;;;;;5067942;28;46934;-81
2021/07/30 04:19:56;;;;;;;;;9.75;9.00;;;;;;;;5059735;28;47004;-80
2021/07/30 04:22:22;;;;;;;;;8.75;8.00;;;;;;;;5055879;28;48417;-81
2021/07/30 04:24:47;;;;;;;;;9.50;8.25;;;;;;;;5064660;28;46975;-81
2021/07/30 04:27:12;;;;;;;;;10.00;9.00;;;;;;;;5059590;28;47105;-81
2021/07/30 04:29:38;;;;;;;;;8.50;8.50;;;;;;;;5054735;28;47162;-81
2021/07/30 04:32:04;;;;;;;;;7.75;7.50;;;;;;;;5041112;28;47220;-81
2021/07/30 04:34:29;;;;;;;;;9.50;9.00;;;;;;;;5074069;28;46905;-81
2021/07/30 04:36:55;;;;;;;;;9.00;9.00;;;;;;;;5079431;28;47142;-81
2021/07/30 04:39:20;;;;;;;;;3.50;3.50;;;;;;;;5064293;28;46775;-81
2021/07/30 04:41:45;;;;;;;;;8.25;8.25;;;;;;;;5059284;28;47817;-81
2021/07/30 04:44:10;;;;;;;;;9.25;8.00;;;;;;;;5062062;28;46685;-80
2021/07/30 04:46:36;;;;;;;;;9.00;8.75;;;;;;;;5069239;28;46969;-81
2021/07/30 04:49:01;;;;;;;;;9.25;7.75;;;;;;;;5059248;28;47337;-81
2021/07/30 04:51:26;;;;;;;;;10.25;8.50;;;;;;;;5059203;28;46973;-81
2021/07/30 04:53:52;;;;;;;;;8.25;8.25;;;;;;;;5058634;28;46926;-81
2021/07/30 04:56:18;;;;;;;;;10.00;8.00;;;;;;;;5059280;28;46958;-81
2021/07/30 04:58:43;;;;;;;;;7.75;7.25;;;;;;;;5062920;28;47060;-81
2021/07/30 05:01:09;;;;;;;;;9.25;9.25;;;;;;;;5068546;28;46828;-81
2021/07/30 05:03:34;;;;;;;;;11.00;9.25;;;;;;;;5070283;28;47058;-81
2021/07/30 05:05:59;;;;;;;;;10.75;8.75;;;;;;;;5058873;28;46854;-81
2021/07/30 05:08:25;;;;;;;;;10.50;8.25;;;;;;;;5058701;28;47021;-81
2021/07/30 05:10:50;;;;;;;;;7.25;7.25;;;;;;;;5058702;28;47806;-81
2021/07/30 05:13:15;;;;;;;;;9.00;7.75;;;;;;;;5039948;28;47944;-81
2021/07/30 05:15:41;;;;;;;;;11.75;10.50;;;;;;;;5058778;28;46988;-81
2021/07/30 05:18:06;;;;;;;;;8.25;8.25;;;;;;;;5058776;28;46868;-81
2021/07/30 05:20:31;;;;;;;;;9.00;8.25;;;;;;;;5042345;28;49207;-81
2021/07/30 05:22:59;;;;;;;;;8.00;8.00;;;;;;;;5073489;28;47007;-81
2021/07/30 05:25:24;;;;;;;;;8.75;6.00;;;;;;;;5062755;27;46975;-81
2021/07/30 05:27:50;;;;;;;;;10.00;9.50;;;;;;;;5080313;27;47292;-81
2021/07/30 05:30:15;;;;;;;;;7.00;7.00;;;;;;;;5073232;27;46943;-81
2021/07/30 05:32:40;;;;;;;;;8.00;8.00;;;;;;;;5070625;27;46936;-81
2021/07/30 05:35:06;;;;;;;;;10.25;10.00;;;;;;;;5045494;28;46900;-81
2021/07/30 05:37:31;;;;;;;;;10.75;9.25;;;;;;;;5050491;28;47282;-82
2021/07/30 05:39:57;;;;;;;;;8.25;8.25;;;;;;;;5058279;28;46997;-81
2021/07/30 05:42:22;;;;;;;;;9.75;8.25;;;;;;;;5058302;28;46979;-82
2021/07/30 05:44:48;;;;;;;;;9.25;9.00;;;;;;;;5046766;28;46994;-81
2021/07/30 05:47:13;;;;;;;;;9.50;8.50;;;;;;;;5069023;28;46822;-82
2021/07/30 05:49:38;;;;;;;;;8.50;7.50;;;;;;;;5064756;27;46936;-81
2021/07/30 05:52:04;;;;;;;;;11.00;8.25;;;;;;;;5075706;27;46848;-81
2021/07/30 05:54:31;;;;;;;;;9.00;8.25;;;;;;;;5066814;27;46942;-80
2021/07/30 05:56:56;;;;;;;;;10.75;9.75;;;;;;;;5057596;28;46905;-80
2021/07/30 05:59:25;;;;;;;;;7.50;7.50;;;;;;;;5058105;28;47863;-79
2021/07/30 06:01:50;;;;;;;;;6.25;6.25;;;;;;;;5044716;28;47037;-80
2021/07/30 06:04:16;;;;;;;;;7.00;7.00;;;;;;;;5071778;27;46786;-80
2021/07/30 06:06:41;;;;;;;;;7.75;7.75;;;;;;;;5066723;28;47028;-80
2021/07/30 06:09:06;;;;;;;;;9.00;8.00;;;;;;;;5073151;27;47320;-80
2021/07/30 06:11:32;;;;;;;;;11.25;9.00;;;;;;;;5075981;28;46825;-80
2021/07/30 06:13:57;;;;;;;;;10.75;8.50;;;;;;;;5067719;27;46966;-79
2021/07/30 06:16:22;;;;;;;;;8.00;7.00;;;;;;;;5079409;27;47031;-81
2021/07/30 06:18:48;;;;;;;;;7.00;6.25;;;;;;;;5044594;28;47056;-82
2021/07/30 06:21:13;;;;;;;;;6.50;6.50;;;;;;;;5072897;27;46905;-79
2021/07/30 06:23:38;;;;;;;;;8.00;7.00;;;;;;;;5063964;27;46939;-81
2021/07/30 06:26:04;;;;;;;;;6.00;6.00;;;;;;;;5083307;27;46828;-79
2021/07/30 06:28:29;;;;;;;;;6.50;6.25;;;;;;;;5086965;27;47304;-80
2021/07/30 06:30:54;;;;;;;;;7.00;6.25;;;;;;;;5071752;28;47030;-81
2021/07/30 06:33:22;;;;;;;;;7.00;6.00;;;;;;;;5070630;27;46933;-77
2021/07/30 06:35:50;;;;;;;;;7.25;5.00;;;;;;;;5078960;27;46890;-78
2021/07/30 06:38:18;;;;;;;;;8.50;7.00;;;;;;;;5077710;28;47084;-88
2021/07/30 06:40:56;;;;;;;;;6.00;5.50;;;;;;;;5068633;28;47043;-82
2021/07/30 06:43:31;;;;;;;;;8.00;8.00;;;;;;;;5057268;28;47011;-82
2021/07/30 06:46:09;;;;;;;;;7.50;7.00;;;;;;;;5057763;28;46978;-82
2021/07/30 06:48:35;;;;;;;;;7.00;7.00;;;;;;;;5039222;28;49281;-82
2021/07/30 06:51:03;;;;;;;;;8.00;7.00;;;;;;;;5057371;28;46929;-82
2021/07/30 06:53:29;;;;;;;;;7.75;5.25;;;;;;;;5057060;28;47108;-82
2021/07/30 06:55:54;;;;;;;;;5.75;5.75;;;;;;;;5057391;28;47342;-81
2021/07/30 06:58:20;;;;;;;;;8.25;6.75;;;;;;;;5056975;27;47698;-81
2021/07/30 07:00:45;;;;;;;;;7.00;7.00;;;;;;;;5070603;28;46982;-81
2021/07/30 07:03:10;;;;;;;;;6.75;6.00;;;;;;;;5070725;28;47005;-81
2021/07/30 07:05:43;;;;;;;;;5.75;5.50;;;;;;;;5057371;28;47168;-81
2021/07/30 07:08:28;;;;;;;;;10.00;7.75;;;;;;;;5056827;28;47041;-82
2021/07/30 07:11:13;;;;;;;;;8.00;7.75;;;;;;;;5042443;28;47669;-82
2021/07/30 07:13:39;;;;;;;;;9.00;7.00;;;;;;;;5038899;28;46914;-81
2021/07/30 07:16:14;;;;;;;;;;;;;;;;;;;;;
2021/07/30 07:18:58;;;;;;;;;7.00;5.25;;;;;;;;5047922;28;76098;-83
2021/07/30 07:21:46;;;;;;;;;4.00;4.00;;;;;;;;5050053;28;47796;-82
2021/07/30 07:24:11;;;;;;;;;6.00;6.00;;;;;;;;5044859;28;46948;-82
2021/07/30 07:26:42;;;;;;;;;6.50;6.25;;;;;;;;5040597;28;47232;-82
2021/07/30 07:29:07;;;;;;;;;8.00;6.25;;;;;;;;5045235;28;47729;-79
2021/07/30 07:31:33;;;;;;;;;4.75;3.50;;;;;;;;5047450;28;47036;-80
2021/07/30 07:33:58;;;;;;;;;5.25;4.25;;;;;;;;5055541;28;46858;-80
2021/07/30 07:36:24;;;;;;;;;6.25;5.00;;;;;;;;5057006;28;47886;-80
2021/07/30 07:38:49;;;;;;;;;5.50;4.25;;;;;;;;5043758;28;48232;-80
2021/07/30 07:41:15;;;;;;;;;6.50;5.50;;;;;;;;5043792;28;47007;-80
2021/07/30 07:43:40;;;;;;;;;5.25;4.00;;;;;;;;5053464;28;46937;-80
2021/07/30 07:46:05;;;;;;;;;7.00;4.75;;;;;;;;5044200;28;47383;-80
2021/07/30 07:48:31;;;;;;;;;7.75;4.50;;;;;;;;5055541;28;47548;-80
2021/07/30 07:50:56;;;;;;;;;7.50;5.75;;;;;;;;5057106;28;47077;-81
2021/07/30 07:53:22;;;;;;;;;6.50;5.00;;;;;;;;5047240;28;47160;-79
2021/07/30 07:55:49;;;;;;;;;5.50;4.75;;;;;;;;5051473;28;47239;-79
2021/07/30 07:58:14;;;;;;;;;7.50;6.50;;;;;;;;5042402;28;47106;-79
2021/07/30 08:00:40;;;;;;;;;5.25;4.25;;;;;;;;5046050;28;46976;-79
2021/07/30 08:03:08;;;;;;;;;4.75;4.75;;;;;;;;5059717;28;47096;-81
2021/07/30 08:05:34;;;;;;;;;3.75;3.75;;;;;;;;5067708;28;46942;-81
2021/07/30 08:07:59;;;;;;;;;6.25;5.00;;;;;;;;5051273;28;47306;-81
2021/07/30 08:10:24;;;;;;;;;5.00;4.75;;;;;;;;5055676;28;47094;-81
2021/07/30 08:12:50;;;;;;;;;4.75;4.75;;;;;;;;5050331;28;47027;-81
2021/07/30 08:15:15;;;;;;;;;5.75;4.75;;;;;;;;5063091;28;47079;-80
2021/07/30 08:17:41;;;;;;;;;4.00;3.25;;;;;;;;5059805;28;47951;-80
2021/07/30 08:20:07;;;;;;;;;4.00;4.00;;;;;;;;5058953;28;47037;-80
2021/07/30 08:22:33;;;;;;;;;3.75;3.75;;;;;;;;5084840;27;47094;-81
2021/07/30 08:24:58;;;;;;;;;4.50;3.25;;;;;;;;5065336;28;46965;-81
2021/07/30 08:27:23;;;;;;;;;7.25;3.75;;;;;;;;5069797;28;47006;-81
2021/07/30 08:29:49;;;;;;;;;5.25;5.25;;;;;;;;5059590;28;47066;-81
2021/07/30 08:32:15;;;;;;;;;5.25;4.00;;;;;;;;5060696;27;48339;-80
2021/07/30 08:34:41;;;;;;;;;2.25;2.25;;;;;;;;5050350;27;46986;-80
2021/07/30 08:37:07;;;;;;;;;6.50;5.50;;;;;;;;5051838;28;47586;-81
2021/07/30 08:39:32;;;;;;;;;5.00;4.75;;;;;;;;5050011;28;47529;-81
2021/07/30 08:41:59;;;;;;;;;4.25;4.25;;;;;;;;5069769;28;47076;-81
2021/07/30 08:44:25;;;;;;;;;5.00;4.75;;;;;;;;5033723;28;48668;-80
2021/07/30 08:46:51;;;;;;;;;4.50;4.50;;;;;;;;5047975;28;48720;-81
2021/07/30 08:49:16;;;;;;;;;3.00;3.00;;;;;;;;5059813;28;47203;-81
2021/07/30 08:51:56;;;;;;;;;;;;;;;;;;;;;
2021/07/30 08:54:22;;;;;;;;;3.75;2.50;;;;;;;;5067819;27;69176;-81
2021/07/30 08:56:47;;;;;;;;;3.75;3.75;;;;;;;;5073078;28;47013;-81
2021/07/30 08:59:12;;;;;;;;;3.50;3.50;;;;;;;;5070901;27;47031;-81
2021/07/30 09:02:05;;;;;;;;;4.75;4.50;;;;;;;;5069110;28;47046;-83
2021/07/30 09:04:31;;;;;;;;;5.00;5.00;;;;;;;;5038147;28;46986;-80
2021/07/30 09:06:57;;;;;;;;;4.75;4.00;;;;;;;;5072343;27;47637;-83
2021/07/30 09:15:21;;;;;;;;;5.25;3.50;;;;;;;;5061979;28;47114;-90
2021/07/30 09:17:47;;;;;;;;;4.25;4.25;;;;;;;;5052321;28;49183;-78
2021/07/30 09:20:12;;;;;;;;;3.00;3.00;;;;;;;;5056292;28;47106;-77
2021/07/30 09:22:50;;;;;;;;;6.25;5.00;;;;;;;;5056542;28;47144;-78
2021/07/30 09:25:35;;;;;;;;;5.25;4.75;;;;;;;;5070867;28;47357;-80
2021/07/30 09:28:04;;;;;;;;;4.75;3.50;;;;;;;;5068162;27;48511;-81
2021/07/30 09:30:30;;;;;;;;;4.75;3.00;;;;;;;;5073872;28;46988;-80
2021/07/30 09:32:55;;;;;;;;;4.00;3.00;;;;;;;;5063751;28;47227;-80
2021/07/30 09:35:41;;;;;;;;;2.75;2.75;;;;;;;;5071086;28;46955;-81
2021/07/30 09:38:20;;;;;;;;;5.00;5.00;;;;;;;;5040423;28;49478;-80
2021/07/30 09:41:24;;;;;;;;;;;;;;;;;;;;;
2021/07/30 09:44:03;;;;;;;;;3.25;3.00;;;;;;;;5061159;27;72076;-81
2021/07/30 09:46:28;;;;;;;;;4.00;3.75;;;;;;;;5074676;27;47015;-77
2021/07/30 09:48:54;;;;;;;;;6.75;5.00;;;;;;;;5047564;28;48214;-82
2021/07/30 09:51:19;;;;;;;;;3.25;3.25;;;;;;;;5062885;28;46977;-82
2021/07/30 09:53:45;;;;;;;;;38.25;26.50;;;;;;;;5060659;28;48548;-82
2021/07/30 09:56:12;;;;;;;;;4.00;4.00;;;;;;;;5062201;28;47298;-82
2021/07/30 09:58:39;;;;;;;;;5.00;4.50;;;;;;;;5072440;27;46966;-82
2021/07/30 10:01:04;;;;;;;;;4.00;3.00;;;;;;;;5061177;28;46957;-81
2021/07/30 10:03:30;;;;;;;;;8.50;3.25;;;;;;;;5068166;28;46918;-80
2021/07/30 10:05:56;;;;;;;;;3.75;3.75;;;;;;;;5042748;28;47070;-80
2021/07/30 10:08:21;;;;;;;;;5.75;3.00;;;;;;;;5049775;28;47143;-80
2021/07/30 10:10:47;;;;;;;;;3.00;3.00;;;;;;;;5057655;28;46925;-80
2021/07/30 10:13:15;;;;;;;;;6.75;4.25;;;;;;;;5069248;27;46954;-80
2021/07/30 10:15:43;;;;;;;;;6.00;5.00;;;;;;;;5060003;27;47087;-82
2021/07/30 10:18:09;;;;;;;;;3.25;3.25;;;;;;;;5064944;28;47985;-84
2021/07/30 10:20:35;;;;;;;;;3.75;3.75;;;;;;;;5068235;28;47265;-83
2021/07/30 10:23:03;;;;;;;;;3.25;2.75;;;;;;;;5041043;28;46936;-84
2021/07/30 10:25:31;;;;;;;;;6.25;4.25;;;;;;;;5067328;28;46961;-80
2021/07/30 10:28:11;;;;;;;;;4.75;3.00;;;;;;;;5062470;28;47182;-80
2021/07/30 10:30:55;;;;;;;;;6.75;4.00;;;;;;;;5065084;28;47104;-80
2021/07/30 10:33:33;;;;;;;;;4.25;4.25;;;;;;;;5068632;28;47571;-81
2021/07/30 10:36:03;;;;;;;;;6.00;5.00;;;;;;;;5067938;27;46969;-81
2021/07/30 10:38:29;;;;;;;;;6.00;4.50;;;;;;;;5056184;28;47155;-78
2021/07/30 10:41:06;;;;;;;;;4.00;4.00;;;;;;;;5039032;28;47853;-81
2021/07/30 10:43:35;;;;;;;;;3.75;2.25;;;;;;;;5058433;28;47125;-80
2021/07/30 10:46:00;;;;;;;;;4.25;3.00;;;;;;;;5056989;28;48576;-81
2021/07/30 10:48:29;;;;;;;;;5.00;5.00;;;;;;;;5079920;27;47012;-80
2021/07/30 11:02:11;;;;;;;;;3.75;3.75;;;;;;;;5013507;28;47291;-82
2021/07/30 11:04:56;;;;;;;;;4.00;3.25;;;;;;;;5016193;28;46959;-85
2021/07/30 11:07:31;;;;;;;;;2.00;2.00;;;;;;;;5015991;28;48653;-86
2021/07/30 11:10:11;;;;;;;;;2.00;2.00;;;;;;;;5014971;28;46989;-83
2021/07/30 11:12:37;;;;;;;;;6.75;3.00;;;;;;;;5015903;28;47174;-86
2021/07/30 11:15:08;;;;;;;;;3.50;2.00;;;;;;;;5015958;28;47147;-83
2021/07/30 11:17:36;;;;;;;;;2.75;2.00;;;;;;;;5016558;28;47171;-87
2021/07/30 11:20:11;;;;;;;;;3.00;3.00;;;;;;;;5017197;28;47027;-86
2021/07/30 11:22:37;;;;;;;;;2.00;2.00;;;;;;;;4998304;28;47343;-87
2021/07/30 11:25:02;;;;;;;;;2.75;2.75;;;;;;;;5006594;28;47086;-85
2021/07/30 11:27:28;;;;;;;;;2.50;2.00;;;;;;;;5016341;28;46933;-86
2021/07/30 11:29:54;;;;;;;;;2.00;1.75;;;;;;;;5009811;28;47870;-81
2021/07/30 11:32:20;;;;;;;;;1.00;1.00;;;;;;;;5013333;28;47152;-82
2021/07/30 11:34:46;;;;;;;;;2.00;2.00;;;;;;;;5010764;28;47168;-81
2021/07/30 11:37:13;;;;;;;;;1.00;1.00;;;;;;;;5012838;28;47214;-82
2021/07/30 11:39:43;;;;;;;;;2.50;1.00;;;;;;;;5014825;28;47830;-85
2021/07/30 11:42:09;;;;;;;;;1.00;1.00;;;;;;;;5012611;28;47186;-82
2021/07/30 11:44:44;;;;;;;;;1.75;1.75;;;;;;;;5016806;28;47162;-84
2021/07/30 11:47:09;;;;;;;;;0.75;0.75;;;;;;;;5015551;28;47153;-81
2021/07/30 11:49:35;;;;;;;;;2.75;1.50;;;;;;;;5016010;28;47787;-82
2021/07/30 11:52:02;;;;;;;;;0.75;0.75;;;;;;;;5011224;28;47243;-83
2021/07/30 11:54:28;;;;;;;;;1.00;1.00;;;;;;;;5007642;28;47091;-84
2021/07/30 11:56:56;;;;;;;;;2.00;1.00;;;;;;;;5011592;28;47000;-82
2021/07/30 11:59:21;;;;;;;;;1.00;0.00;;;;;;;;4986584;28;49269;-82
2021/07/30 12:02:07;;;;;;;;;0.00;0.00;;;;;;;;4996660;28;47345;-80
2021/07/30 12:04:33;;;;;;;;;0.00;0.00;;;;;;;;4992881;28;47011;-78
2021/07/30 12:07:04;;;;;;;;;0.00;0.00;;;;;;;;4994355;28;47308;-81
2021/07/30 12:09:31;;;;;;;;;1.00;1.00;;;;;;;;4997323;28;47070;-80
2021/07/30 12:11:58;;;;;;;;;0.00;0.00;;;;;;;;4994080;28;47406;-81
2021/07/30 12:14:26;;;;;;;;;1.00;0.00;;;;;;;;4993970;28;46938;-81
2021/07/30 12:16:53;;;;;;;;;0.25;0.25;;;;;;;;4997513;28;47060;-80
2021/07/30 12:19:28;;;;;;;;;0.00;0.00;;;;;;;;4995928;28;47715;-79
2021/07/30 12:21:54;;;;;;;;;0.00;0.00;;;;;;;;4994778;28;46975;-80
2021/07/30 12:24:20;;;;;;;;;0.00;0.00;;;;;;;;4992370;28;46902;-81
2021/07/30 12:26:45;;;;;;;;;0.25;0.25;;;;;;;;4993292;28;46855;-79
2021/07/30 12:29:30;;;;;;;;;2.00;0.00;;;;;;;;4994759;28;47026;-79
2021/07/30 12:32:11;;;;;;;;;0.00;0.00;;;;;;;;4997783;28;47001;-79
2021/07/30 12:35:01;;;;;;;;;0.00;0.00;;;;;;;;4993513;28;47113;-83
2021/07/30 12:37:56;;;;;;;;;;;;;;;;;;;;;
2021/07/30 12:40:22;;;;;;;;;0.00;0.00;;;;;;;;4992165;28;75320;-81
2021/07/30 12:42:47;;;;;;;;;1.00;1.00;;;;;;;;4983934;28;47023;-82
2021/07/30 12:45:36;;;;;;;;;0.00;0.00;;;;;;;;4980327;28;46991;-83
2021/07/30 12:48:01;;;;;;;;;0.25;0.25;;;;;;;;4990466;28;46892;-83
2021/07/30 12:50:30;;;;;;;;;2.00;0.25;;;;;;;;5008972;28;46989;-82
2021/07/30 12:53:06;;;;;;;;;0.00;0.00;;;;;;;;4997132;28;46776;-83
2021/07/30 12:55:31;;;;;;;;;1.00;1.00;;;;;;;;4994317;28;46890;-84
2021/07/30 12:57:56;;;;;;;;;1.00;1.00;;;;;;;;4999622;28;46933;-83
2021/07/30 13:00:32;;;;;;;;;0.00;0.00;;;;;;;;5003178;28;47920;-83
2021/07/30 13:02:58;;;;;;;;;1.50;0.25;;;;;;;;5017093;28;47015;-82
2021/07/30 13:05:36;;;;;;;;;0.50;0.00;;;;;;;;4999048;28;47175;-83
2021/07/30 13:08:02;;;;;;;;;1.50;1.00;;;;;;;;5017827;28;46825;-87
2021/07/30 13:10:38;;;;;;;;;0.00;0.00;;;;;;;;4994174;28;48522;-87
2021/07/30 13:13:07;;;;;;;;;1.00;1.00;;;;;;;;5008247;28;48101;-88
2021/07/30 13:15:33;;;;;;;;;0.00;0.00;;;;;;;;5000382;28;46942;-87
2021/07/30 13:17:58;;;;;;;;;1.25;1.25;;;;;;;;5016405;28;47047;-89
2021/07/30 13:20:23;;;;;;;;;1.00;1.00;;;;;;;;5018111;28;47036;-87
2021/07/30 13:22:51;;;;;;;;;0.50;0.50;;;;;;;;5000405;28;47171;-88
2021/07/30 13:25:16;;;;;;;;;1.00;0.75;;;;;;;;5018634;28;46957;-86
2021/07/30 13:27:42;;;;;;;;;0.50;0.00;;;;;;;;5017315;28;46859;-86
2021/07/30 13:30:26;;;;;;;;;0.00;0.00;;;;;;;;5000919;28;49144;-91
2021/07/30 13:32:51;;;;;;;;;1.00;1.00;;;;;;;;4995675;28;47004;-92
2021/07/30 13:38:05;;;;;;;;;1.00;1.00;;;;;;;;5007214;28;46772;-87
2021/07/30 13:40:48;;;;;;;;;1.50;1.50;;;;;;;;5018627;28;46964;-91
2021/07/30 13:43:14;;;;;;;;;2.25;1.75;;;;;;;;4999924;28;47035;-87
2021/07/30 13:45:51;;;;;;;;;1.00;1.00;;;;;;;;5018641;28;46886;-90
2021/07/30 13:48:17;;;;;;;;;1.50;1.50;;;;;;;;5017273;28;47072;-85
2021/07/30 13:50:42;;;;;;;;;1.75;1.00;;;;;;;;5014903;28;47050;-88
2021/07/30 13:53:11;;;;;;;;;1.75;1.75;;;;;;;;4996444;28;47091;-89
2021/07/30 13:55:36;;;;;;;;;3.25;2.00;;;;;;;;5000762;28;47003;-89
2021/07/30 13:58:58;;;;;;;;;1.50;1.50;;;;;;;;5009260;28;47013;-85
2021/07/30 14:01:08;;;;;;;;;1.00;1.00;;;;;;;;4993811;28;47218;-89
2021/07/30 14:03:34;;;;;;;;;1.00;1.00;;;;;;;;4988308;28;47668;-85
2021/07/30 14:05:59;;;;;;;;;4.25;2.00;;;;;;;;4998746;28;47009;-84
2021/07/30 14:08:27;;;;;;;;;3.00;1.00;;;;;;;;5009414;28;47005;-90
2021/07/30 14:10:52;;;;;;;;;0.25;0.25;;;;;;;;4998272;28;47001;-84
2021/07/30 14:13:17;;;;;;;;;1.00;1.00;;;;;;;;5013908;28;46855;-82
2021/07/30 14:15:43;;;;;;;;;2.00;1.75;;;;;;;;5008698;28;47146;-85
2021/07/30 14:18:09;;;;;;;;;2.00;2.00;;;;;;;;4998397;28;46992;-83
2021/07/30 14:20:35;;;;;;;;;5.00;2.00;;;;;;;;5010123;28;47063;-84
2021/07/30 14:23:01;;;;;;;;;2.00;1.50;;;;;;;;5015953;28;46952;-83
2021/07/30 14:25:29;;;;;;;;;4.00;2.00;;;;;;;;5018287;28;47139;-86
2021/07/30 14:27:54;;;;;;;;;1.25;1.25;;;;;;;;5016186;28;46918;-83
2021/07/30 14:30:20;;;;;;;;;2.75;2.00;;;;;;;;5016182;28;47190;-82
2021/07/30 14:32:45;;;;;;;;;2.50;2.00;;;;;;;;5010205;28;47048;-83
2021/07/30 14:35:11;;;;;;;;;2.00;2.00;;;;;;;;5005654;28;47330;-85
2021/07/30 14:37:37;;;;;;;;;3.75;1.75;;;;;;;;5014340;28;46900;-85
2021/07/30 14:40:03;;;;;;;;;1.25;1.25;;;;;;;;5012641;28;46912;-83
2021/07/30 14:42:28;;;;;;;;;1.00;1.00;;;;;;;;5011795;28;47161;-85
2021/07/30 14:44:54;;;;;;;;;2.00;1.75;;;;;;;;5017996;28;46900;-83
2021/07/30 14:47:41;;;;;;;;;1.00;1.00;;;;;;;;5016243;28;47157;-84
2021/07/30 14:50:30;;;;;;;;;1.75;1.00;;;;;;;;5014252;28;47347;-85
2021/07/30 14:52:56;;;;;;;;;3.50;1.75;;;;;;;;5015569;28;46866;-84
2021/07/30 14:55:21;;;;;;;;;1.00;1.00;;;;;;;;4999566;28;46886;-78
2021/07/30 14:57:46;;;;;;;;;1.25;1.25;;;;;;;;5013477;28;47038;-84
2021/07/30 15:00:12;;;;;;;;;4.50;2.00;;;;;;;;5010244;28;49104;-88
2021/07/30 15:02:37;;;;;;;;;1.00;1.00;;;;;;;;5016066;28;47312;-90
2021/07/30 15:05:03;;;;;;;;;1.00;0.25;;;;;;;;5017683;28;46995;-90
2021/07/30 15:07:28;;;;;;;;;2.00;1.00;;;;;;;;5000376;28;47008;-88
2021/07/30 15:09:53;;;;;;;;;1.00;0.00;;;;;;;;5017042;28;46887;-85